Terminal Aerodrome Forecast
Issued by NWS

Home | Current Version | Previous Version | Text Only | Print | Product List | Glossary On
Versions: 1 2 3 4 5 6 7 8 9 10 11 12 13 14 15 16 17 18 19 20 21 22 23
824
FTUS44 KLZK 302059 AAA
TAFADF
TAF AMD
KADF 302059Z 3021/3118 10005KT P6SM VCTS SCT030CB OVC100
      TEMPO 3021/3023 VRB15G30KT 3SM TSRA BR BKN025CB OVC050
     FM310200 08004KT P6SM VCTS SCT040CB SCT250
     FM311000 12003KT P6SM BKN040=

USA.gov is the U.S. government's official web portal to all federal, state and local government web resources and services.